Time;durP1;ratioP1;P1;durP2;ratioP2;P2;SDS_P1;SDS_P2;PMS_P1;PMS_P2;Temp;Humidity;BMP_temperature;BMP_pressure;BME280_temperature;BME280_humidity;BME280_pressure;Samples;Min_cycle;Max_cycle;Signal;HPM_P1;HPM_P2
2022/05/09 00:00:12;;;;;;;26.60;9.02;;;6.20;99.90;;;;;;4961652;28;90317;-34
2022/05/09 00:02:38;;;;;;;12.55;7.35;;;6.10;99.90;;;;;;4962009;28;90860;-38
2022/05/09 00:05:06;;;;;;;16.17;7.15;;;6.20;99.90;;;;;;4962024;28;90047;-34
2022/05/09 00:07:32;;;;;;;15.57;7.77;;;6.20;99.90;;;;;;4961691;28;89889;-33
2022/05/09 00:09:57;;;;;;;18.25;7.95;;;6.10;99.90;;;;;;4961545;28;90025;-33
2022/05/09 00:12:23;;;;;;;23.38;7.53;;;6.10;99.90;;;;;;4961768;28;89702;-33
2022/05/09 00:14:48;;;;;;;26.35;8.10;;;6.10;99.90;;;;;;4961540;28;89758;-34
2022/05/09 00:17:14;;;;;;;13.73;7.65;;;6.10;99.90;;;;;;4961408;28;89811;-35
2022/05/09 00:19:40;;;;;;;19.48;7.97;;;6.10;99.90;;;;;;4960164;28;90700;-34
2022/05/09 00:22:06;;;;;;;13.68;7.88;;;6.10;99.90;;;;;;4961552;28;89803;-38
2022/05/09 00:24:31;;;;;;;20.60;8.07;;;6.10;99.90;;;;;;4961155;28;90447;-37
2022/05/09 00:26:57;;;;;;;16.20;7.80;;;6.10;99.90;;;;;;4961562;28;89481;-38
2022/05/09 00:29:23;;;;;;;15.05;7.20;;;6.10;99.90;;;;;;4961553;28;90263;-33
2022/05/09 00:31:52;;;;;;;17.17;8.80;;;6.10;99.90;;;;;;4960427;28;89793;-36
2022/05/09 00:34:21;;;;;;;17.15;8.13;;;6.20;99.90;;;;;;4961290;28;89388;-36
2022/05/09 00:36:47;;;;;;;22.10;8.57;;;6.20;99.90;;;;;;4961357;28;89330;-35
2022/05/09 00:39:14;;;;;;;14.60;7.53;;;6.20;99.90;;;;;;4961598;28;91632;-34
2022/05/09 00:41:42;;;;;;;13.75;8.30;;;6.20;99.90;;;;;;4990076;22;90836;-34
2022/05/09 00:44:09;;;;;;;15.15;7.88;;;6.20;99.90;;;;;;4960554;28;91214;-36
2022/05/09 00:46:35;;;;;;;17.35;8.52;;;6.10;99.90;;;;;;4961024;28;88627;-36
2022/05/09 00:49:06;;;;;;;15.52;8.68;;;6.10;99.90;;;;;;4961606;28;88912;-34
2022/05/09 00:51:33;;;;;;;19.05;8.48;;;6.00;99.90;;;;;;4961473;28;89708;-37
2022/05/09 00:54:02;;;;;;;19.23;8.02;;;6.00;99.90;;;;;;4960800;28;89519;-35
2022/05/09 00:56:35;;;;;;;16.05;7.38;;;6.00;99.90;;;;;;4960890;28;88717;-34
2022/05/09 00:59:06;;;;;;;21.50;8.13;;;6.00;99.90;;;;;;4961421;28;90314;-34
2022/05/09 01:01:32;;;;;;;18.13;8.05;;;5.90;99.90;;;;;;4960607;28;89841;-39
2022/05/09 01:04:10;;;;;;;25.38;8.40;;;5.90;99.90;;;;;;4961154;28;90664;-33
2022/05/09 01:06:36;;;;;;;24.65;9.40;;;5.90;99.90;;;;;;4960170;28;89511;-35
2022/05/09 01:09:03;;;;;;;27.80;8.40;;;5.90;99.90;;;;;;4959170;28;90128;-38
2022/05/09 01:11:29;;;;;;;23.30;8.18;;;5.90;99.90;;;;;;4960667;28;89351;-35
2022/05/09 01:14:04;;;;;;;18.10;7.75;;;5.80;99.90;;;;;;4960877;28;89956;-32
2022/05/09 01:16:32;;;;;;;21.75;8.43;;;5.80;99.90;;;;;;4960593;28;90190;-39
2022/05/09 01:19:01;;;;;;;16.17;7.45;;;5.60;99.90;;;;;;4960200;28;90492;-35
2022/05/09 01:21:36;;;;;;;16.63;7.72;;;5.50;99.90;;;;;;4960938;28;89541;-36
2022/05/09 01:24:04;;;;;;;16.42;8.02;;;5.50;99.90;;;;;;4960197;28;90365;-38
2022/05/09 01:26:30;;;;;;;26.10;10.10;;;5.40;99.90;;;;;;4960478;28;89098;-35
2022/05/09 01:29:02;;;;;;;21.90;8.63;;;5.40;99.90;;;;;;4959671;28;90150;-36
2022/05/09 01:31:27;;;;;;;16.23;9.38;;;5.30;99.90;;;;;;4959868;28;90459;-36
2022/05/09 01:33:55;;;;;;;19.20;9.30;;;5.30;99.90;;;;;;4960427;28;90714;-33
2022/05/09 01:36:27;;;;;;;21.77;8.43;;;5.30;99.90;;;;;;4960474;28;89944;-33
2022/05/09 01:39:02;;;;;;;20.50;9.00;;;5.30;99.90;;;;;;4960427;28;90135;-32
2022/05/09 01:41:35;;;;;;;16.30;9.45;;;5.30;99.90;;;;;;4959305;28;90034;-32
2022/05/09 01:44:00;;;;;;;22.35;9.45;;;5.30;99.90;;;;;;4958537;28;91196;-34
2022/05/09 01:46:28;;;;;;;19.17;9.20;;;5.30;99.90;;;;;;4959842;28;89269;-35
2022/05/09 01:51:40;;;;;;;22.20;9.27;;;5.30;99.90;;;;;;4959574;28;89673;-36
2022/05/09 01:54:07;;;;;;;21.57;8.87;;;5.20;99.90;;;;;;4959510;28;89494;-36
2022/05/09 01:56:35;;;;;;;21.88;9.00;;;5.20;99.90;;;;;;4959337;28;88893;-37
2022/05/09 01:59:01;;;;;;;24.73;11.02;;;5.20;99.90;;;;;;4959976;28;89254;-32
2022/05/09 02:01:33;;;;;;;20.50;10.07;;;5.20;99.90;;;;;;4959368;28;89727;-33
2022/05/09 02:03:59;;;;;;;28.92;9.80;;;5.20;99.90;;;;;;4959181;28;89457;-37
2022/05/09 02:06:24;;;;;;;26.40;10.32;;;5.20;99.90;;;;;;4960108;28;88617;-37
2022/05/09 02:08:50;;;;;;;26.40;9.30;;;5.20;99.90;;;;;;4959365;28;90127;-33
2022/05/09 02:11:16;;;;;;;17.40;9.52;;;5.20;99.90;;;;;;4959524;28;90194;-33
2022/05/09 02:13:41;;;;;;;23.67;10.35;;;5.10;99.90;;;;;;4958620;28;91510;-33
2022/05/09 02:16:07;;;;;;;20.40;10.23;;;5.10;99.90;;;;;;4959904;28;89644;-33
2022/05/09 02:18:34;;;;;;;21.30;10.13;;;5.20;99.90;;;;;;4959979;28;89602;-31
2022/05/09 02:20:59;;;;;;;20.05;10.68;;;5.20;99.90;;;;;;4958149;28;91875;-34
2022/05/09 02:23:25;;;;;;;15.32;9.45;;;5.30;99.90;;;;;;4958604;28;90557;-35
2022/05/09 02:25:52;;;;;;;20.38;10.10;;;5.20;99.90;;;;;;4959515;28;89630;-38
2022/05/09 02:28:17;;;;;;;19.13;11.15;;;5.30;99.90;;;;;;4959856;28;90172;-32
2022/05/09 02:30:43;;;;;;;29.17;12.73;;;5.20;99.90;;;;;;4958243;28;89831;-35
2022/05/09 02:33:10;;;;;;;22.55;10.10;;;5.30;99.90;;;;;;4959001;28;89102;-35
2022/05/09 02:35:37;;;;;;;21.88;10.30;;;5.30;99.90;;;;;;4958443;28;87907;-33
2022/05/09 02:38:04;;;;;;;19.98;9.57;;;5.30;99.90;;;;;;4958586;28;89238;-34
2022/05/09 02:40:29;;;;;;;20.35;10.02;;;5.30;99.90;;;;;;4958882;28;89919;-35
2022/05/09 02:42:57;;;;;;;28.95;9.98;;;5.30;99.90;;;;;;4959351;28;89708;-35
2022/05/09 02:45:23;;;;;;;21.83;10.63;;;5.30;99.90;;;;;;4957632;28;90960;-35
2022/05/09 02:47:49;;;;;;;27.48;11.57;;;5.40;99.90;;;;;;4958008;28;90321;-36
2022/05/09 02:50:15;;;;;;;18.25;8.90;;;5.30;99.90;;;;;;4959131;28;90252;-33
2022/05/09 02:52:42;;;;;;;18.63;10.40;;;5.20;99.90;;;;;;4951529;28;89455;-34
2022/05/09 02:55:10;;;;;;;19.63;9.45;;;5.20;99.90;;;;;;4939462;28;89913;-33
2022/05/09 02:57:36;;;;;;;23.60;10.73;;;5.10;99.90;;;;;;4939678;28;89610;-37
2022/05/09 03:00:04;;;;;;;16.05;9.55;;;5.10;99.90;;;;;;4938731;28;89968;-32
2022/05/09 03:02:29;;;;;;;26.30;10.98;;;5.20;99.90;;;;;;4938987;28;89656;-33
2022/05/09 03:04:55;;;;;;;19.67;10.50;;;5.10;99.90;;;;;;4938121;28;89713;-34
2022/05/09 03:07:21;;;;;;;19.05;9.98;;;5.10;99.90;;;;;;4938721;28;91120;-32
2022/05/09 03:09:48;;;;;;;18.70;9.02;;;4.90;99.90;;;;;;4937934;28;91660;-36
2022/05/09 03:12:14;;;;;;;19.13;9.77;;;4.70;99.90;;;;;;4939514;28;90456;-33
2022/05/09 03:14:40;;;;;;;27.23;10.20;;;4.60;99.90;;;;;;4938870;28;88145;-34
2022/05/09 03:17:08;;;;;;;20.70;9.38;;;4.60;99.90;;;;;;4939109;28;91074;-34
2022/05/09 03:19:34;;;;;;;25.10;11.07;;;4.70;99.90;;;;;;4939899;28;89662;-33
2022/05/09 03:22:00;;;;;;;23.30;11.25;;;4.70;99.90;;;;;;4938556;28;90587;-32
2022/05/09 03:24:26;;;;;;;29.15;11.82;;;4.80;99.90;;;;;;4939210;28;90940;-32
2022/05/09 03:26:52;;;;;;;19.45;10.30;;;4.90;99.90;;;;;;4938438;28;90334;-36
2022/05/09 03:29:19;;;;;;;25.77;11.70;;;4.90;99.90;;;;;;4938851;28;90142;-32
2022/05/09 03:31:46;;;;;;;18.17;10.80;;;5.00;99.90;;;;;;4939230;28;89328;-36
2022/05/09 03:34:12;;;;;;;21.58;10.00;;;5.00;99.90;;;;;;4941767;28;89712;-34
2022/05/09 03:36:38;;;;;;;17.25;10.35;;;5.00;99.90;;;;;;4941422;28;89932;-33
2022/05/09 03:39:04;;;;;;;18.95;10.43;;;4.90;99.90;;;;;;4941047;28;91262;-36
2022/05/09 03:41:29;;;;;;;13.73;10.13;;;4.90;99.90;;;;;;4941461;28;89853;-36
2022/05/09 03:43:55;;;;;;;21.05;10.88;;;4.90;99.90;;;;;;4942173;28;88799;-35
2022/05/09 03:46:21;;;;;;;25.13;11.40;;;4.90;99.90;;;;;;4941988;28;91031;-33
2022/05/09 03:48:46;;;;;;;15.25;9.50;;;4.90;99.90;;;;;;4941367;28;89691;-35
2022/05/09 03:51:12;;;;;;;22.38;10.75;;;4.90;99.90;;;;;;4942527;28;89478;-36
2022/05/09 03:53:37;;;;;;;19.25;11.02;;;4.90;99.90;;;;;;4941793;28;89503;-38
2022/05/09 03:56:05;;;;;;;22.25;11.30;;;4.80;99.90;;;;;;4942211;28;90204;-34
2022/05/09 03:58:31;;;;;;;21.38;12.13;;;4.80;99.90;;;;;;4941298;28;90565;-37
2022/05/09 04:00:56;;;;;;;24.33;11.13;;;4.80;99.90;;;;;;4941103;28;90571;-33
2022/05/09 04:03:22;;;;;;;27.23;12.48;;;4.90;99.90;;;;;;4942205;28;90072;-36
2022/05/09 04:05:48;;;;;;;22.58;12.98;;;4.80;99.90;;;;;;4940998;28;90130;-38
2022/05/09 04:08:17;;;;;;;20.58;12.10;;;4.80;99.90;;;;;;4941253;28;89540;-35
2022/05/09 04:10:44;;;;;;;18.65;11.25;;;4.80;99.90;;;;;;4939342;28;89805;-38
2022/05/09 04:13:11;;;;;;;22.50;10.73;;;4.80;99.90;;;;;;4941503;28;88973;-37
2022/05/09 04:18:26;;;;;;;21.30;11.95;;;4.80;99.90;;;;;;4941387;28;89746;-36
2022/05/09 04:20:52;;;;;;;23.63;12.23;;;4.80;99.90;;;;;;4940490;28;90060;-40
2022/05/09 04:23:18;;;;;;;27.58;11.05;;;4.70;99.90;;;;;;4941064;28;89071;-32
2022/05/09 04:25:44;;;;;;;25.00;11.20;;;4.80;99.90;;;;;;4940190;28;90456;-35
2022/05/09 04:28:10;;;;;;;16.05;10.68;;;4.80;99.90;;;;;;4941565;28;90042;-38
2022/05/09 04:30:38;;;;;;;19.02;10.43;;;4.80;99.90;;;;;;4940742;28;89522;-34
2022/05/09 04:33:05;;;;;;;23.13;12.17;;;4.80;99.90;;;;;;4940608;28;87682;-34
2022/05/09 04:35:32;;;;;;;26.00;13.87;;;5.00;99.90;;;;;;4940503;28;90239;-36
2022/05/09 04:37:59;;;;;;;21.95;12.23;;;5.10;99.90;;;;;;4940817;28;89702;-37
2022/05/09 04:40:29;;;;;;;21.13;11.63;;;5.30;99.90;;;;;;4940532;28;89576;-35
2022/05/09 04:42:56;;;;;;;24.42;12.65;;;5.40;99.90;;;;;;4940812;28;87589;-32
2022/05/09 04:45:22;;;;;;;29.27;13.02;;;5.70;99.90;;;;;;4940058;28;90869;-38
2022/05/09 04:47:50;;;;;;;23.52;12.40;;;6.00;99.90;;;;;;4940445;28;90717;-38
2022/05/09 04:50:20;;;;;;;23.52;12.57;;;6.20;99.90;;;;;;4940882;28;90378;-33
2022/05/09 04:52:46;;;;;;;29.52;13.82;;;6.60;99.90;;;;;;4941449;28;89475;-36
2022/05/09 04:55:13;;;;;;;19.45;12.05;;;6.70;99.90;;;;;;4940484;28;90727;-35
2022/05/09 04:57:40;;;;;;;22.35;11.93;;;6.50;99.90;;;;;;4939665;28;89662;-34
2022/05/09 05:00:09;;;;;;;18.80;12.55;;;6.40;99.90;;;;;;4940530;28;89208;-33
2022/05/09 05:02:35;;;;;;;24.10;10.63;;;6.20;99.90;;;;;;4940984;28;88605;-38
2022/05/09 05:05:01;;;;;;;22.98;12.27;;;6.40;99.90;;;;;;4940436;28;90058;-33
2022/05/09 05:07:26;;;;;;;15.82;10.70;;;6.40;99.90;;;;;;4941266;28;90031;-38
2022/05/09 05:09:52;;;;;;;23.08;11.73;;;6.50;99.90;;;;;;4939918;28;90039;-35
2022/05/09 05:12:18;;;;;;;26.73;13.48;;;6.50;99.90;;;;;;4939199;28;89921;-38
2022/05/09 05:14:44;;;;;;;32.63;11.50;;;6.70;99.90;;;;;;4954929;28;90339;-33
2022/05/09 05:17:10;;;;;;;22.77;11.65;;;6.80;99.90;;;;;;4940671;28;90075;-36
2022/05/09 05:19:40;;;;;;;33.15;11.75;;;6.80;99.90;;;;;;4938865;28;89145;-36
2022/05/09 05:22:06;;;;;;;26.02;11.48;;;6.80;99.90;;;;;;4939603;28;88748;-37
2022/05/09 05:24:37;;;;;;;34.35;12.40;;;7.00;99.90;;;;;;4940376;28;90101;-35
2022/05/09 05:27:03;;;;;;;22.20;11.77;;;7.10;99.90;;;;;;4940652;28;88747;-36
2022/05/09 05:29:29;;;;;;;18.13;10.95;;;7.10;99.90;;;;;;4940232;28;90643;-36
2022/05/09 05:31:55;;;;;;;18.58;10.88;;;7.20;99.90;;;;;;4939517;28;89116;-34
2022/05/09 05:34:20;;;;;;;18.45;11.13;;;7.20;99.90;;;;;;4940269;28;90652;-34
2022/05/09 05:36:46;;;;;;;17.48;12.48;;;7.30;99.90;;;;;;4938772;28;90094;-36
2022/05/09 05:39:15;;;;;;;26.40;12.10;;;7.40;99.90;;;;;;4939350;28;90819;-33
2022/05/09 05:41:45;;;;;;;25.65;10.60;;;7.50;99.90;;;;;;4939794;28;88815;-33
2022/05/09 05:44:11;;;;;;;17.27;11.25;;;7.60;99.90;;;;;;4939865;28;90169;-34
2022/05/09 05:46:39;;;;;;;17.83;12.70;;;7.70;99.90;;;;;;4939721;28;89427;-33
2022/05/09 05:49:05;;;;;;;17.45;10.73;;;7.80;99.90;;;;;;4939639;28;89743;-35
2022/05/09 05:51:30;;;;;;;32.17;11.70;;;7.80;99.90;;;;;;4940038;28;88624;-36
2022/05/09 05:53:58;;;;;;;24.63;11.85;;;8.00;99.90;;;;;;4939591;28;89137;-32
2022/05/09 05:56:24;;;;;;;14.37;10.97;;;8.10;99.90;;;;;;4938985;28;89115;-34
2022/05/09 05:58:50;;;;;;;22.10;12.70;;;8.10;99.90;;;;;;4940053;28;89708;-36
2022/05/09 06:01:16;;;;;;;19.25;11.43;;;8.40;99.90;;;;;;4938832;28;89278;-36
2022/05/09 06:03:42;;;;;;;28.25;12.55;;;8.50;99.90;;;;;;4950053;28;90069;-38
2022/05/09 06:06:07;;;;;;;19.23;12.18;;;8.50;99.90;;;;;;4957349;28;89641;-35
2022/05/09 06:08:37;;;;;;;18.33;12.25;;;8.60;99.90;;;;;;4957397;28;90029;-38
2022/05/09 06:11:05;;;;;;;19.25;10.35;;;8.80;99.90;;;;;;4956748;28;89455;-32
2022/05/09 06:13:31;;;;;;;19.48;11.35;;;9.00;99.90;;;;;;4956864;28;90379;-36
2022/05/09 06:15:57;;;;;;;21.75;11.52;;;9.20;99.90;;;;;;4956582;28;89771;-35
2022/05/09 06:18:22;;;;;;;11.65;9.80;;;9.50;99.90;;;;;;4957233;28;89971;-36
2022/05/09 06:20:48;;;;;;;22.67;11.52;;;9.80;99.90;;;;;;4957948;28;89644;-32
2022/05/09 06:23:16;;;;;;;19.33;10.70;;;9.80;99.90;;;;;;4956387;28;89424;-33
2022/05/09 06:25:43;;;;;;;;;;;9.90;99.90;;;;;;4956350;28;90227;-35
2022/05/09 06:28:09;;;;;;;15.10;10.15;;;10.20;99.90;;;;;;4959702;28;89549;-37
2022/05/09 06:30:35;;;;;;;17.90;11.48;;;10.40;99.90;;;;;;4957632;28;90250;-33
2022/05/09 06:33:01;;;;;;;19.25;10.50;;;10.70;99.90;;;;;;4956875;28;90566;-33
2022/05/09 06:35:28;;;;;;;15.02;10.05;;;10.90;99.90;;;;;;4956379;28;89592;-32
2022/05/09 06:38:05;;;;;;;17.77;9.27;;;11.10;99.90;;;;;;4955680;28;89483;-35
2022/05/09 06:40:33;;;;;;;14.88;9.57;;;11.20;99.90;;;;;;4957037;28;89135;-35
2022/05/09 06:42:59;;;;;;;14.63;9.30;;;11.30;99.90;;;;;;4955737;28;88655;-36
2022/05/09 06:45:25;;;;;;;22.25;10.00;;;11.30;99.90;;;;;;4957148;28;90958;-35
2022/05/09 06:47:53;;;;;;;28.27;10.40;;;11.60;99.90;;;;;;4956365;28;89948;-32
2022/05/09 06:50:21;;;;;;;23.48;9.65;;;12.00;99.90;;;;;;4955712;28;88448;-33
2022/05/09 06:52:47;;;;;;;17.30;9.60;;;12.30;99.90;;;;;;4957168;28;90492;-38
2022/05/09 06:55:13;;;;;;;20.85;8.10;;;12.40;99.90;;;;;;4957080;28;89740;-33
2022/05/09 06:57:41;;;;;;;18.70;8.02;;;12.80;99.90;;;;;;4956912;28;89854;-35
2022/05/09 07:00:09;;;;;;;16.17;9.50;;;13.20;99.90;;;;;;4957359;28;89791;-37
2022/05/09 07:02:35;;;;;;;;;;;13.50;99.90;;;;;;4956816;28;90189;-37
2022/05/09 07:05:08;;;;;;;12.50;8.10;;;13.40;99.90;;;;;;4958440;28;89222;-34
2022/05/09 07:07:34;;;;;;;13.02;7.55;;;13.30;99.90;;;;;;4960515;28;90855;-35
2022/05/09 07:10:00;;;;;;;16.80;7.85;;;13.50;99.90;;;;;;4960305;28;89719;-41
2022/05/09 07:12:25;;;;;;;13.45;7.97;;;13.80;99.90;;;;;;4960592;28;90027;-37
2022/05/09 07:14:51;;;;;;;10.65;7.63;;;13.90;99.90;;;;;;4959375;28;91584;-35
2022/05/09 07:17:16;;;;;;;22.77;7.47;;;13.60;99.90;;;;;;4959624;28;90205;-37
2022/05/09 07:19:43;;;;;;;16.35;8.32;;;14.10;99.90;;;;;;4960835;28;89294;-35
2022/05/09 07:22:09;;;;;;;11.30;7.78;;;14.20;99.90;;;;;;4959668;28;91340;-35
2022/05/09 07:24:34;;;;;;;15.68;6.88;;;14.70;99.90;;;;;;4960179;28;90522;-38
2022/05/09 07:27:00;;;;;;;15.13;8.00;;;15.10;99.90;;;;;;4961203;28;89372;-35
2022/05/09 07:29:26;;;;;;;13.98;7.25;;;15.10;99.90;;;;;;4960523;28;89590;-37
2022/05/09 07:31:51;;;;;;;15.65;8.43;;;15.20;99.90;;;;;;4960440;28;90108;-33
2022/05/09 07:34:17;;;;;;;15.32;8.30;;;15.10;99.90;;;;;;4960103;28;89997;-35
2022/05/09 07:36:42;;;;;;;12.88;6.47;;;15.00;99.90;;;;;;4959753;28;89518;-35
2022/05/09 07:39:08;;;;;;;11.30;7.60;;;14.80;99.90;;;;;;4959906;28;90547;-34
2022/05/09 07:41:34;;;;;;;10.90;7.28;;;15.10;99.90;;;;;;4960037;28;90863;-35
2022/05/09 07:44:00;;;;;;;11.10;6.32;;;15.20;99.90;;;;;;4960303;28;89766;-34
2022/05/09 07:46:26;;;;;;;9.70;7.65;;;14.70;99.90;;;;;;4959543;28;88935;-36
2022/05/09 07:48:52;;;;;;;10.27;7.40;;;15.30;99.90;;;;;;4960117;28;90113;-34
2022/05/09 07:51:19;;;;;;;26.00;7.65;;;15.70;99.90;;;;;;4959342;28;90340;-35
2022/05/09 07:53:45;;;;;;;13.55;8.10;;;15.50;99.90;;;;;;4959986;28;90080;-37
2022/05/09 07:56:11;;;;;;;11.68;7.30;;;16.00;99.90;;;;;;4960729;28;89202;-37
2022/05/09 07:58:36;;;;;;;11.85;7.00;;;16.40;99.90;;;;;;4959671;28;88236;-36
2022/05/09 08:01:03;;;;;;;14.77;7.70;;;16.60;99.90;;;;;;4959785;28;90120;-35
2022/05/09 08:03:32;;;;;;;12.25;8.40;;;16.70;99.90;;;;;;4959234;28;90577;-35
2022/05/09 08:05:59;;;;;;;18.63;7.55;;;16.70;99.90;;;;;;4958955;28;91978;-35
2022/05/09 08:08:26;;;;;;;13.68;7.35;;;16.50;99.90;;;;;;4959207;28;88242;-36
2022/05/09 08:10:51;;;;;;;18.77;7.97;;;16.70;99.90;;;;;;4959295;28;90351;-34
2022/05/09 08:13:19;;;;;;;16.15;8.05;;;16.60;99.90;;;;;;4959470;28;92001;-34
2022/05/09 08:15:46;;;;;;;11.73;8.10;;;16.80;99.90;;;;;;4959364;28;89961;-37
2022/05/09 08:18:13;;;;;;;14.98;7.35;;;16.80;99.90;;;;;;4959406;28;88693;-38
2022/05/09 08:20:40;;;;;;;16.10;7.07;;;17.00;99.90;;;;;;4959504;28;90244;-36
2022/05/09 08:23:11;;;;;;;10.02;6.53;;;17.00;92.00;;;;;;4959775;28;89931;-35
2022/05/09 08:25:39;;;;;;;12.93;6.40;;;17.10;85.50;;;;;;4959388;28;91469;-35
2022/05/09 08:28:06;;;;;;;12.55;6.00;;;17.40;96.50;;;;;;4958889;28;88924;-37
2022/05/09 08:30:34;;;;;;;14.07;6.63;;;17.50;79.30;;;;;;4958895;28;89602;-38
2022/05/09 08:33:00;;;;;;;;;;;17.60;94.30;;;;;;4960032;28;89820;-40
2022/05/09 08:35:26;;;;;;;13.68;7.10;;;18.50;76.80;;;;;;4960973;28;89067;-36
2022/05/09 08:37:52;;;;;;;10.57;5.97;;;18.30;80.60;;;;;;4959606;28;88957;-34
2022/05/09 08:40:24;;;;;;;13.38;5.88;;;18.10;78.40;;;;;;4958531;28;92324;-33
2022/05/09 08:42:58;;;;;;;7.47;5.22;;;18.40;83.50;;;;;;4958963;28;89646;-33
2022/05/09 08:45:35;;;;;;;13.88;5.75;;;19.00;76.60;;;;;;4959619;28;89624;-35
2022/05/09 08:48:09;;;;;;;12.95;6.78;;;18.60;62.20;;;;;;4959467;28;89782;-34
2022/05/09 08:51:00;;;;;;;14.70;6.28;;;19.30;68.70;;;;;;4959022;28;90052;-36
2022/05/09 08:53:27;;;;;;;8.90;5.72;;;19.30;66.90;;;;;;4958443;28;89768;-38
2022/05/09 08:55:55;;;;;;;12.10;7.23;;;19.50;67.60;;;;;;4958964;28;90072;-34
2022/05/09 08:58:32;;;;;;;7.72;5.35;;;19.30;69.40;;;;;;4959864;28;90313;-34
2022/05/09 09:01:03;;;;;;;8.85;4.93;;;19.30;66.50;;;;;;4958439;28;90013;-35
2022/05/09 09:03:32;;;;;;;10.63;4.97;;;19.60;60.50;;;;;;4958528;28;90772;-34
2022/05/09 09:06:05;;;;;;;11.70;5.53;;;19.50;60.10;;;;;;4956454;28;91018;-34
2022/05/09 09:08:55;;;;;;;6.80;4.85;;;19.90;61.60;;;;;;4959376;28;89879;-35
2022/05/09 09:11:41;;;;;;;11.90;5.18;;;20.00;58.20;;;;;;4959144;28;90166;-34
2022/05/09 09:14:48;;;;;;;11.75;5.00;;;19.70;55.90;;;;;;4936694;28;90499;-38
2022/05/09 09:17:47;;;;;;;21.10;7.10;;;20.20;55.00;;;;;;4958300;28;90324;-36
2022/05/09 09:20:41;;;;;;;93.10;16.98;;;20.10;54.50;;;;;;4958562;28;89409;-36
2022/05/09 09:23:19;;;;;;;11.05;4.70;;;20.70;57.90;;;;;;4958347;28;89908;-37
2022/05/09 09:25:57;;;;;;;12.13;5.07;;;20.10;56.20;;;;;;4958499;28;89997;-33
2022/05/09 09:28:49;;;;;;;8.43;5.25;;;19.70;57.50;;;;;;4958281;28;89963;-35
2022/05/09 09:31:26;;;;;;;12.43;6.00;;;19.50;55.10;;;;;;4958043;28;90184;-34
2022/05/09 09:34:02;;;;;;;14.47;5.37;;;19.90;58.70;;;;;;4958293;28;90419;-35
2022/05/09 09:36:39;;;;;;;9.52;4.93;;;20.40;58.50;;;;;;4958277;28;89699;-33
2022/05/09 09:39:19;;;;;;;9.55;4.05;;;20.20;54.80;;;;;;4958334;28;89775;-37
2022/05/09 09:41:46;;;;;;;5.68;4.20;;;20.60;55.20;;;;;;4957797;28;89243;-38
2022/05/09 09:44:19;;;;;;;7.07;4.10;;;21.00;55.00;;;;;;4958524;28;90342;-35
2022/05/09 09:47:18;;;;;;;11.48;4.45;;;20.90;53.20;;;;;;4957539;28;90149;-36
2022/05/09 09:49:45;;;;;;;4.30;3.53;;;21.00;52.20;;;;;;4958349;28;90506;-34
2022/05/09 09:52:43;;;;;;;5.03;3.55;;;20.70;51.70;;;;;;4958430;28;88122;-37
2022/05/09 09:55:24;;;;;;;7.45;3.90;;;20.60;50.20;;;;;;4949768;28;89508;-35
2022/05/09 09:57:50;;;;;;;7.85;4.15;;;20.80;51.70;;;;;;4957868;28;90646;-34
2022/05/09 10:00:19;;;;;;;8.75;3.35;;;20.90;52.30;;;;;;4958630;28;89862;-38
2022/05/09 10:02:49;;;;;;;5.40;3.20;;;21.20;52.70;;;;;;4958595;28;88539;-36
2022/05/09 10:05:18;;;;;;;5.03;3.55;;;21.20;51.90;;;;;;4958263;28;90422;-37
2022/05/09 10:07:45;;;;;;;8.50;4.43;;;21.40;52.00;;;;;;4957842;28;90600;-33
2022/05/09 10:10:16;;;;;;;16.83;4.75;;;21.40;53.10;;;;;;4957510;28;89872;-37
2022/05/09 10:12:51;;;;;;;11.45;3.85;;;21.80;50.80;;;;;;4958058;28;89949;-33
2022/05/09 10:15:30;;;;;;;8.55;3.45;;;22.10;53.10;;;;;;4957851;28;89841;-36
2022/05/09 10:17:58;;;;;;;8.43;4.22;;;21.80;49.60;;;;;;4957170;28;89929;-36
2022/05/09 10:20:27;;;;;;;7.53;3.47;;;21.80;50.00;;;;;;4957708;28;90183;-38
2022/05/09 10:25:59;;;;;;;4.05;2.72;;;21.40;49.60;;;;;;4957554;28;91736;-34
2022/05/09 10:28:28;;;;;;;10.45;3.83;;;21.70;51.60;;;;;;4958074;28;91784;-33
2022/05/09 10:31:01;;;;;;;7.45;4.03;;;21.70;50.60;;;;;;4957757;28;89674;-35
2022/05/09 10:33:37;;;;;;;4.68;3.05;;;21.70;50.70;;;;;;4958177;28;88592;-36
2022/05/09 10:36:08;;;;;;;5.82;3.30;;;21.80;50.30;;;;;;4956517;28;89260;-36
2022/05/09 10:38:53;;;;;;;4.85;3.33;;;21.70;49.70;;;;;;4943479;28;89872;-37
2022/05/09 10:41:38;;;;;;;8.95;3.97;;;21.80;50.60;;;;;;4936731;28;90432;-36
2022/05/09 10:44:43;;;;;;;5.65;2.83;;;21.60;49.20;;;;;;4938348;28;89532;-38
2022/05/09 10:47:33;;;;;;;12.25;3.42;;;21.60;49.60;;;;;;4934575;28;90757;-37
2022/05/09 10:50:09;;;;;;;7.57;3.10;;;21.60;49.50;;;;;;4947917;28;89548;-38
2022/05/09 10:52:46;;;;;;;4.53;2.85;;;22.00;51.90;;;;;;4957619;28;89861;-40
2022/05/09 10:55:22;;;;;;;5.93;3.45;;;22.10;52.10;;;;;;4955627;28;88120;-35
2022/05/09 10:58:01;;;;;;;6.60;3.15;;;22.00;50.60;;;;;;4951640;28;89893;-36
2022/05/09 11:00:27;;;;;;;12.13;3.47;;;22.20;49.90;;;;;;4957321;28;89390;-38
2022/05/09 11:03:17;;;;;;;5.55;3.03;;;22.10;49.70;;;;;;4957816;28;88628;-33
2022/05/09 11:06:20;;;;;;;6.90;3.67;;;21.90;50.00;;;;;;4956995;28;88914;-37
2022/05/09 11:09:01;;;;;;;4.40;2.90;;;21.60;48.60;;;;;;4957433;28;89857;-37
2022/05/09 11:11:33;;;;;;;10.13;3.10;;;22.00;49.80;;;;;;4916757;28;90131;-36
2022/05/09 11:14:23;;;;;;;8.18;3.58;;;22.30;50.90;;;;;;4960642;28;89657;-38
2022/05/09 11:16:55;;;;;;;5.22;2.55;;;22.30;49.70;;;;;;4956985;28;88063;-34
2022/05/09 11:19:59;;;;;;;3.63;2.83;;;22.30;48.50;;;;;;4957024;28;90050;-34
2022/05/09 11:22:38;;;;;;;8.98;2.83;;;22.40;48.00;;;;;;4956903;28;90090;-34
2022/05/09 11:25:21;;;;;;;8.75;3.80;;;22.10;48.90;;;;;;4957784;28;89798;-33
2022/05/09 11:27:58;;;;;;;7.50;3.35;;;22.30;52.50;;;;;;4957650;28;89223;-35
2022/05/09 11:30:45;;;;;;;5.85;3.50;;;22.10;50.80;;;;;;4956728;28;90808;-34
2022/05/09 11:33:51;;;;;;;20.90;4.88;;;22.00;49.00;;;;;;4956567;28;90057;-36
2022/05/09 11:36:46;;;;;;;6.65;4.05;;;22.20;48.90;;;;;;4956582;28;90489;-41
2022/05/09 11:39:39;;;;;;;5.70;3.45;;;22.00;49.90;;;;;;4957322;28;89482;-39
2022/05/09 11:45:49;;;;;;;4.63;3.85;;;21.70;49.60;;;;;;4956817;28;89637;-36
2022/05/09 11:48:29;;;;;;;8.13;2.85;;;22.00;50.10;;;;;;4875865;28;89852;-38
2022/05/09 11:51:19;;;;;;;52.53;7.80;;;22.20;50.90;;;;;;4945692;28;89108;-37
2022/05/09 11:53:50;;;;;;;8.38;4.40;;;22.40;50.10;;;;;;4957811;28;90124;-34
2022/05/09 11:56:17;;;;;;;7.22;3.17;;;22.20;48.20;;;;;;4959791;28;89819;-34
2022/05/09 11:58:44;;;;;;;9.40;3.60;;;22.70;51.70;;;;;;4959552;28;89702;-35
2022/05/09 12:01:11;;;;;;;8.65;3.50;;;22.60;50.50;;;;;;4959998;28;88170;-35
2022/05/09 12:03:42;;;;;;;8.52;3.95;;;22.70;49.60;;;;;;4959053;28;89880;-38
2022/05/09 12:06:35;;;;;;;5.75;3.55;;;22.80;50.80;;;;;;4959677;28;89947;-36
2022/05/09 12:09:04;;;;;;;9.05;3.47;;;22.90;50.60;;;;;;4959584;28;89426;-33
2022/05/09 12:11:44;;;;;;;5.78;2.78;;;23.00;50.40;;;;;;4959629;28;89011;-35
2022/05/09 12:14:10;;;;;;;19.60;4.63;;;22.70;51.70;;;;;;4959253;28;90158;-35
2022/05/09 12:16:35;;;;;;;6.28;3.80;;;22.70;51.50;;;;;;4958932;28;90066;-36
2022/05/09 12:19:03;;;;;;;5.57;3.60;;;22.90;51.00;;;;;;4958621;28;90132;-36
2022/05/09 12:21:41;;;;;;;;;;;23.00;49.90;;;;;;4958265;28;88828;-35
2022/05/09 12:24:16;;;;;;;8.07;4.38;;;22.60;48.30;;;;;;4959900;28;90229;-37
2022/05/09 12:26:49;;;;;;;6.50;3.83;;;22.80;51.20;;;;;;4959270;28;90110;-35
2022/05/09 12:29:16;;;;;;;6.35;3.58;;;22.60;49.30;;;;;;4959547;28;90418;-37
2022/05/09 12:31:48;;;;;;;5.03;3.75;;;22.70;50.20;;;;;;4959165;28;88407;-33
2022/05/09 12:34:16;;;;;;;8.23;3.13;;;22.60;51.20;;;;;;4959558;28;91249;-35
2022/05/09 12:36:43;;;;;;;;;;;22.40;50.80;;;;;;4959810;28;90231;-37
2022/05/09 12:39:14;;;;;;;16.77;3.25;;;22.70;51.10;;;;;;4960833;28;90113;-37
2022/05/09 12:41:52;;;;;;;7.07;3.25;;;22.80;50.10;;;;;;4991838;22;88576;-33
2022/05/09 12:44:38;;;;;;;4.25;2.65;;;22.70;50.20;;;;;;4959845;28;90221;-37
2022/05/09 12:47:11;;;;;;;8.35;3.67;;;22.80;48.80;;;;;;4958542;28;89675;-37
2022/05/09 12:49:49;;;;;;;11.98;3.78;;;22.80;48.50;;;;;;4959475;28;89818;-36
2022/05/09 12:52:22;;;;;;;5.28;3.60;;;22.90;48.60;;;;;;4959206;28;91096;-36
2022/05/09 12:55:52;;;;;;;7.38;3.20;;;22.70;49.00;;;;;;4958939;28;90817;-34
2022/05/09 12:57:38;;;;;;;5.20;3.10;;;23.00;49.10;;;;;;4958860;28;90210;-37
2022/05/09 13:00:29;;;;;;;10.77;3.85;;;23.00;51.20;;;;;;4959297;28;89747;-35
2022/05/09 13:02:54;;;;;;;11.30;3.45;;;23.20;50.40;;;;;;4951375;28;89887;-39
2022/05/09 13:05:35;;;;;;;8.07;4.07;;;23.10;50.40;;;;;;4958634;28;90970;-36
2022/05/09 13:08:04;;;;;;;7.72;3.42;;;23.20;49.50;;;;;;4958723;28;89641;-37
2022/05/09 13:10:31;;;;;;;9.40;3.80;;;23.20;48.20;;;;;;4959086;28;90301;-33